Time;durP1;ratioP1;P1;durP2;ratioP2;P2;SDS_P1;SDS_P2;PMS_P1;PMS_P2;Temp;Humidity;BMP_temperature;BMP_pressure;BME280_temperature;BME280_humidity;BME280_pressure;Samples;Min_cycle;Max_cycle;Signal;HPM_P1;HPM_P2
2022/06/14 00:01:06;;;;;;;;;;;27.70;51.70;;;;;;657593;30;663;-85
2022/06/14 00:01:26;;;;;;;;;;;27.70;51.60;;;;;;659899;30;947;-85
2022/06/14 00:01:47;;;;;;;;;;;27.70;51.70;;;;;;660192;30;864;-85
2022/06/14 00:02:07;;;;;;;;;;;27.60;51.70;;;;;;660094;30;798;-84
2022/06/14 00:02:28;;;;;;;;;;;27.70;51.70;;;;;;659994;30;1361;-86
2022/06/14 00:02:48;;;;;;;;;;;27.70;52.00;;;;;;659907;30;1126;-85
2022/06/14 00:03:10;;;;;;;;;;;27.70;52.00;;;;;;659998;30;786;-86
2022/06/14 00:03:30;;;;;;;;;;;27.70;51.90;;;;;;660046;29;1312;-86
2022/06/14 00:03:51;;;;;;;;;;;27.70;52.00;;;;;;660282;29;1209;-85
2022/06/14 00:04:12;;;;;;;;;;;27.70;52.20;;;;;;659862;29;1518;-85
2022/06/14 00:04:32;;;;;;;;;;;27.70;51.70;;;;;;660177;30;782;-85
2022/06/14 00:04:53;;;;;;;;;;;27.70;51.70;;;;;;662458;29;1386;-86
2022/06/14 00:05:14;;;;;;;;;;;27.60;52.10;;;;;;662479;29;1376;-86
2022/06/14 00:05:34;;;;;;;;;;;25.30;51.00;;;;;;659927;29;1305;-85
2022/06/14 00:05:56;;;;;;;;;;;27.70;51.80;;;;;;660115;30;821;-86
2022/06/14 00:06:18;;;;;;;;;;;27.70;51.70;;;;;;659918;30;975;-86
2022/06/14 00:06:39;;;;;;;;;;;27.70;51.60;;;;;;656931;29;1300;-86
2022/06/14 00:06:59;;;;;;;;;;;27.70;51.80;;;;;;655757;30;849;-85
2022/06/14 00:07:20;;;;;;;;;;;27.70;51.60;;;;;;658097;30;1329;-85
2022/06/14 00:07:41;;;;;;;;;;;27.70;51.20;;;;;;657380;30;984;-85
2022/06/14 00:08:01;;;;;;;;;;;27.70;52.00;;;;;;657567;30;1533;-85
2022/06/14 00:08:25;;;;;;;;;;;27.60;51.60;;;;;;660466;29;1226;-85
2022/06/14 00:08:46;;;;;;;;;;;27.70;51.80;;;;;;662501;29;813;-85
2022/06/14 00:09:06;;;;;;;;;;;27.70;51.50;;;;;;662443;29;876;-85
2022/06/14 00:09:27;;;;;;;;;;;27.70;51.80;;;;;;662522;29;1201;-85
2022/06/14 00:09:47;;;;;;;;;;;27.60;51.70;;;;;;662413;29;817;-85
2022/06/14 00:10:08;;;;;;;;;;;27.70;51.20;;;;;;662046;29;1238;-85
2022/06/14 00:10:29;;;;;;;;;;;27.70;52.00;;;;;;660076;30;1229;-87
2022/06/14 00:10:49;;;;;;;;;;;27.70;51.50;;;;;;659990;30;864;-85
2022/06/14 00:11:11;;;;;;;;;;;27.70;51.30;;;;;;657457;29;1304;-85
2022/06/14 00:11:34;;;;;;;;;;;27.70;51.80;;;;;;660018;29;1435;-86
2022/06/14 00:11:55;;;;;;;;;;;27.70;51.90;;;;;;660175;29;837;-85
2022/06/14 00:12:15;;;;;;;;;;;27.70;51.90;;;;;;658204;29;1290;-86
2022/06/14 00:12:36;;;;;;;;;;;27.70;51.20;;;;;;660013;30;889;-86
2022/06/14 00:12:57;;;;;;;;;;;27.70;51.30;;;;;;660829;29;849;-85
2022/06/14 00:13:18;;;;;;;;;;;27.70;51.50;;;;;;659298;29;1334;-85
2022/06/14 00:13:38;;;;;;;;;;;27.60;51.10;;;;;;657495;30;838;-84
2022/06/14 00:14:00;;;;;;;;;;;27.70;51.50;;;;;;655388;30;1397;-84
2022/06/14 00:14:20;;;;;;;;;;;27.70;51.70;;;;;;655190;30;1217;-84
2022/06/14 00:14:41;;;;;;;;;;;27.70;51.80;;;;;;655047;29;1385;-84
2022/06/14 00:15:02;;;;;;;;;;;27.60;51.80;;;;;;655540;30;1342;-84
2022/06/14 00:15:23;;;;;;;;;;;27.60;51.60;;;;;;657390;30;1127;-84
2022/06/14 00:15:45;;;;;;;;;;;27.70;51.80;;;;;;657970;29;1232;-84
2022/06/14 00:16:06;;;;;;;;;;;27.70;51.20;;;;;;657538;30;1124;-84
2022/06/14 00:16:27;;;;;;;;;;;27.70;51.70;;;;;;657667;30;782;-84
2022/06/14 00:16:48;;;;;;;;;;;27.70;51.50;;;;;;657484;30;1318;-85
2022/06/14 00:17:09;;;;;;;;;;;27.60;51.50;;;;;;656847;30;1198;-85
2022/06/14 00:17:29;;;;;;;;;;;27.70;51.10;;;;;;655791;30;830;-84
2022/06/14 00:17:50;;;;;;;;;;;27.60;51.40;;;;;;658048;30;858;-84
2022/06/14 00:18:10;;;;;;;;;;;27.70;51.20;;;;;;660100;30;857;-84
2022/06/14 00:18:31;;;;;;;;;;;27.70;51.10;;;;;;657579;30;1408;-85
2022/06/14 00:18:51;;;;;;;;;;;27.70;51.30;;;;;;660149;29;1908;-85
2022/06/14 00:19:12;;;;;;;;;;;27.70;51.50;;;;;;662396;29;992;-84
2022/06/14 00:19:33;;;;;;;;;;;27.70;51.00;;;;;;662424;29;1293;-85
2022/06/14 00:19:53;;;;;;;;;;;27.70;51.40;;;;;;662664;29;895;-84
2022/06/14 00:20:14;;;;;;;;;;;27.60;50.70;;;;;;660022;29;1205;-84
2022/06/14 00:20:35;;;;;;;;;;;27.60;51.00;;;;;;659787;29;983;-85
2022/06/14 00:20:56;;;;;;;;;;;27.70;51.10;;;;;;657683;30;924;-84
2022/06/14 00:21:17;;;;;;;;;;;27.60;50.70;;;;;;660379;29;1126;-84
2022/06/14 00:21:37;;;;;;;;;;;27.60;51.20;;;;;;660127;29;1454;-84
2022/06/14 00:22:01;;;;;;;;;;;27.60;50.80;;;;;;660464;29;1251;-84
2022/06/14 00:22:22;;;;;;;;;;;27.60;51.00;;;;;;660073;29;1426;-84
2022/06/14 00:22:43;;;;;;;;;;;27.60;51.40;;;;;;660434;30;995;-85
2022/06/14 00:23:04;;;;;;;;;;;27.60;51.20;;;;;;659710;29;1285;-84
2022/06/14 00:23:24;;;;;;;;;;;28.00;51.60;;;;;;658014;30;806;-85
2022/06/14 00:23:45;;;;;;;;;;;27.60;51.10;;;;;;658041;30;789;-84
2022/06/14 00:24:06;;;;;;;;;;;27.70;51.10;;;;;;660820;29;1327;-85
2022/06/14 00:24:27;;;;;;;;;;;27.60;51.10;;;;;;662973;29;825;-84
2022/06/14 00:24:48;;;;;;;;;;;27.60;51.40;;;;;;663417;29;833;-85
2022/06/14 00:25:18;;;;;;;;;;;27.60;51.70;;;;;;662984;29;1386;-86
2022/06/14 00:25:40;;;;;;;;;;;27.60;51.10;;;;;;662829;29;869;-85
2022/06/14 00:26:02;;;;;;;;;;;27.40;50.80;;;;;;660896;29;1382;-85
2022/06/14 00:26:23;;;;;;;;;;;27.60;51.00;;;;;;660006;29;1450;-84
2022/06/14 00:26:43;;;;;;;;;;;27.60;51.20;;;;;;660167;30;905;-84
2022/06/14 00:27:04;;;;;;;;;;;27.60;51.80;;;;;;660120;29;1552;-84
2022/06/14 00:27:25;;;;;;;;;;;27.60;51.00;;;;;;660016;29;1316;-84
2022/06/14 00:27:45;;;;;;;;;;;27.60;50.90;;;;;;660143;30;909;-85
2022/06/14 00:28:07;;;;;;;;;;;27.60;50.70;;;;;;659862;29;1263;-85
2022/06/14 00:28:29;;;;;;;;;;;27.60;50.60;;;;;;660148;29;1487;-85
2022/06/14 00:28:49;;;;;;;;;;;27.60;50.50;;;;;;662441;29;1487;-85
2022/06/14 00:29:10;;;;;;;;;;;27.60;50.60;;;;;;662544;29;818;-84
2022/06/14 00:29:30;;;;;;;;;;;27.60;51.10;;;;;;662507;29;959;-85
2022/06/14 00:29:51;;;;;;;;;;;27.60;51.30;;;;;;662519;29;873;-85
2022/06/14 00:30:12;;;;;;;;;;;27.60;51.70;;;;;;662042;29;1403;-85
2022/06/14 00:30:32;;;;;;;;;;;27.60;51.10;;;;;;659754;29;1338;-85
2022/06/14 00:30:55;;;;;;;;;;;27.60;50.90;;;;;;659925;29;1514;-84
2022/06/14 00:31:18;;;;;;;;;;;27.60;50.50;;;;;;659937;29;1293;-84
2022/06/14 00:31:39;;;;;;;;;;;27.60;51.30;;;;;;659958;30;885;-85
2022/06/14 00:31:59;;;;;;;;;;;27.60;50.90;;;;;;660006;30;1450;-85
2022/06/14 00:32:20;;;;;;;;;;;27.60;50.70;;;;;;659879;29;1104;-85
2022/06/14 00:32:40;;;;;;;;;;;27.60;50.90;;;;;;659015;29;1410;-85
2022/06/14 00:33:01;;;;;;;;;;;27.60;50.70;;;;;;657659;30;833;-84
2022/06/14 00:33:22;;;;;;;;;;;27.60;50.80;;;;;;657586;30;996;-85
2022/06/14 00:33:43;;;;;;;;;;;27.60;51.00;;;;;;657721;30;826;-84
2022/06/14 00:34:03;;;;;;;;;;;27.60;50.70;;;;;;660417;29;794;-84
2022/06/14 00:34:24;;;;;;;;;;;27.60;51.10;;;;;;660140;29;1361;-85
2022/06/14 00:34:44;;;;;;;;;;;26.30;50.00;;;;;;659982;29;1214;-85
2022/06/14 00:35:05;;;;;;;;;;;27.60;51.10;;;;;;660095;30;876;-85
2022/06/14 00:35:26;;;;;;;;;;;27.60;50.80;;;;;;660093;29;1131;-84
2022/06/14 00:35:47;;;;;;;;;;;27.60;50.60;;;;;;659850;29;1287;-84
2022/06/14 00:36:10;;;;;;;;;;;27.50;50.90;;;;;;659916;29;1478;-84
2022/06/14 00:36:32;;;;;;;;;;;27.00;50.40;;;;;;659984;29;1211;-85
2022/06/14 00:36:54;;;;;;;;;;;27.60;50.90;;;;;;657481;29;1424;-84
2022/06/14 00:37:16;;;;;;;;;;;27.60;50.60;;;;;;659933;29;1309;-85
2022/06/14 00:37:37;;;;;;;;;;;27.60;51.00;;;;;;660019;29;1297;-85
2022/06/14 00:37:57;;;;;;;;;;;27.60;51.00;;;;;;657483;29;1392;-84
2022/06/14 00:38:18;;;;;;;;;;;27.60;50.80;;;;;;655831;29;1255;-85
2022/06/14 00:38:38;;;;;;;;;;;27.60;50.90;;;;;;658076;29;1266;-85
2022/06/14 00:39:02;;;;;;;;;;;27.50;50.90;;;;;;657074;30;1899;-85
2022/06/14 00:39:23;;;;;;;;;;;27.50;51.10;;;;;;657265;30;1508;-84
2022/06/14 00:39:44;;;;;;;;;;;27.60;51.40;;;;;;657484;30;1257;-85
2022/06/14 00:40:07;;;;;;;;;;;27.60;50.90;;;;;;657518;30;1313;-85
2022/06/14 00:40:29;;;;;;;;;;;27.60;51.30;;;;;;658493;30;1127;-85
2022/06/14 00:40:52;;;;;;;;;;;27.60;51.30;;;;;;657447;30;1281;-84
2022/06/14 00:41:26;;;;;;;;;;;27.60;51.50;;;;;;654078;30;1242;-85
2022/06/14 00:41:51;;;;;;;;;;;26.60;50.60;;;;;;652624;30;1386;-85
2022/06/14 00:42:19;;;;;;;;;;;27.60;51.40;;;;;;656217;30;1241;-85
2022/06/14 00:42:40;;;;;;;;;;;27.60;51.50;;;;;;659968;30;1035;-84
2022/06/14 00:43:02;;;;;;;;;;;27.60;51.30;;;;;;659163;30;833;-85
2022/06/14 00:43:24;;;;;;;;;;;27.60;51.50;;;;;;660346;30;860;-85
2022/06/14 00:43:44;;;;;;;;;;;27.60;51.20;;;;;;660404;30;1218;-85
2022/06/14 00:44:06;;;;;;;;;;;27.60;51.50;;;;;;660412;30;865;-86
2022/06/14 00:44:28;;;;;;;;;;;27.60;51.30;;;;;;658160;30;1296;-84
2022/06/14 00:45:07;;;;;;;;;;;27.60;51.20;;;;;;657917;30;1369;-85
2022/06/14 00:45:28;;;;;;;;;;;27.60;51.30;;;;;;660693;29;1470;-85
2022/06/14 00:45:52;;;;;;;;;;;27.60;51.30;;;;;;662613;29;1347;-85
2022/06/14 00:46:15;;;;;;;;;;;27.60;51.10;;;;;;662693;29;1270;-84
2022/06/14 00:47:08;;;;;;;;;;;27.60;51.20;;;;;;662948;29;852;-85
2022/06/14 00:47:32;;;;;;;;;;;27.60;51.00;;;;;;654958;30;1572;-85
2022/06/14 00:47:58;;;;;;;;;;;27.60;51.50;;;;;;652441;30;1102;-85
2022/06/14 00:48:26;;;;;;;;;;;27.60;51.20;;;;;;652710;30;1227;-85
2022/06/14 00:48:49;;;;;;;;;;;27.60;50.90;;;;;;652639;30;999;-85
2022/06/14 00:49:16;;;;;;;;;;;27.60;52.10;;;;;;650159;30;1108;-85
2022/06/14 00:49:50;;;;;;;;;;;27.60;50.80;;;;;;650236;30;1372;-85
2022/06/14 00:50:16;;;;;;;;;;;27.60;52.00;;;;;;651297;30;1287;-85
2022/06/14 00:50:40;;;;;;;;;;;27.60;50.90;;;;;;650009;30;1128;-85
2022/06/14 00:51:07;;;;;;;;;;;27.60;50.90;;;;;;650032;30;1511;-85
2022/06/14 00:51:29;;;;;;;;;;;27.60;50.80;;;;;;650166;30;1270;-85
2022/06/14 00:51:53;;;;;;;;;;;27.60;50.90;;;;;;650029;30;1363;-85
2022/06/14 00:52:16;;;;;;;;;;;27.60;50.80;;;;;;652426;30;1322;-85
2022/06/14 00:52:37;;;;;;;;;;;27.60;50.70;;;;;;652396;30;1408;-85
2022/06/14 00:53:12;;;;;;;;;;;27.60;50.70;;;;;;652506;30;861;-84
2022/06/14 00:53:51;;;;;;;;;;;27.60;50.70;;;;;;650308;30;1293;-85
2022/06/14 00:54:21;;;;;;;;;;;27.60;50.70;;;;;;654616;30;972;-85
2022/06/14 00:54:44;;;;;;;;;;;27.60;50.60;;;;;;654841;30;1254;-85
2022/06/14 00:55:24;;;;;;;;;;;27.60;50.70;;;;;;652382;30;1282;-84
2022/06/14 00:55:55;;;;;;;;;;;27.60;50.60;;;;;;652428;30;1136;-84
2022/06/14 00:56:18;;;;;;;;;;;27.60;50.70;;;;;;652506;30;861;-85
2022/06/14 00:56:53;;;;;;;;;;;27.60;50.60;;;;;;650001;30;1228;-85
2022/06/14 00:57:19;;;;;;;;;;;27.60;50.60;;;;;;652534;30;798;-85
2022/06/14 00:57:52;;;;;;;;;;;27.60;50.50;;;;;;654255;30;1384;-86
2022/06/14 00:58:15;;;;;;;;;;;27.60;50.80;;;;;;654804;30;1268;-85
2022/06/14 00:58:39;;;;;;;;;;;27.60;50.30;;;;;;656736;30;1084;-85
2022/06/14 00:58:59;;;;;;;;;;;27.60;50.90;;;;;;657339;30;1900;-85
2022/06/14 00:59:25;;;;;;;;;;;27.60;50.70;;;;;;659757;30;1693;-85
2022/06/14 00:59:50;;;;;;;;;;;27.60;50.30;;;;;;657331;30;1254;-85
2022/06/14 01:00:13;;;;;;;;;;;27.60;50.30;;;;;;657206;30;1183;-85
2022/06/14 01:00:38;;;;;;;;;;;27.60;50.30;;;;;;654821;30;1386;-85
2022/06/14 01:01:00;;;;;;;;;;;27.60;50.40;;;;;;654894;30;896;-85
2022/06/14 01:01:23;;;;;;;;;;;27.60;50.30;;;;;;650085;30;1242;-85
2022/06/14 01:01:45;;;;;;;;;;;27.60;50.40;;;;;;649979;30;1095;-85
2022/06/14 01:02:13;;;;;;;;;;;27.60;50.30;;;;;;650060;30;810;-85
2022/06/14 01:02:38;;;;;;;;;;;27.60;50.30;;;;;;654767;30;1184;-85
2022/06/14 01:03:00;;;;;;;;;;;27.60;50.30;;;;;;654736;30;1226;-85
2022/06/14 01:03:23;;;;;;;;;;;27.60;50.30;;;;;;657120;30;818;-85
2022/06/14 01:03:47;;;;;;;;;;;27.60;50.50;;;;;;657408;30;798;-84
2022/06/14 01:04:27;;;;;;;;;;;27.60;50.30;;;;;;654813;30;1301;-84
2022/06/14 01:04:48;;;;;;;;;;;27.60;50.10;;;;;;655860;30;1010;-85
2022/06/14 01:05:14;;;;;;;;;;;27.60;50.40;;;;;;654790;30;1201;-85
2022/06/14 01:06:24;;;;;;;;;;;27.60;50.10;;;;;;657448;30;635;-84
2022/06/14 01:06:53;;;;;;;;;;;27.60;50.20;;;;;;655530;30;818;-85
2022/06/14 01:07:24;;;;;;;;;;;27.60;50.10;;;;;;659701;30;1459;-84
2022/06/14 01:07:46;;;;;;;;;;;27.60;50.00;;;;;;657352;30;881;-85
2022/06/14 01:08:07;;;;;;;;;;;27.60;50.00;;;;;;654827;30;1225;-85
2022/06/14 01:08:28;;;;;;;;;;;27.60;50.10;;;;;;655071;30;1240;-85
2022/06/14 01:08:50;;;;;;;;;;;27.60;49.90;;;;;;652417;30;1128;-85
2022/06/14 01:09:14;;;;;;;;;;;27.60;50.00;;;;;;650424;30;1108;-84
2022/06/14 01:09:37;;;;;;;;;;;27.60;49.80;;;;;;653452;30;1211;-84
2022/06/14 01:10:02;;;;;;;;;;;27.60;50.20;;;;;;653739;30;890;-85
2022/06/14 01:10:25;;;;;;;;;;;27.60;50.10;;;;;;654871;30;842;-85
2022/06/14 01:10:47;;;;;;;;;;;27.60;49.80;;;;;;654855;30;1273;-84
2022/06/14 01:11:10;;;;;;;;;;;27.60;49.80;;;;;;656635;30;1286;-85
2022/06/14 01:11:37;;;;;;;;;;;27.60;49.80;;;;;;653196;30;1284;-85
2022/06/14 01:12:06;;;;;;;;;;;27.60;50.00;;;;;;652981;30;1087;-85
2022/06/14 01:12:29;;;;;;;;;;;26.40;48.90;;;;;;652863;30;1119;-85
2022/06/14 01:12:53;;;;;;;;;;;26.70;49.70;;;;;;652923;30;1198;-85
2022/06/14 01:13:16;;;;;;;;;;;27.60;50.00;;;;;;652994;30;1238;-85
2022/06/14 01:13:37;;;;;;;;;;;27.60;50.00;;;;;;652765;30;1401;-85
2022/06/14 01:13:59;;;;;;;;;;;27.60;50.70;;;;;;653049;30;857;-84
2022/06/14 01:14:22;;;;;;;;;;;27.60;49.90;;;;;;654454;30;838;-85
2022/06/14 01:15:01;;;;;;;;;;;27.60;49.50;;;;;;652870;30;1471;-84
2022/06/14 01:15:24;;;;;;;;;;;27.60;49.60;;;;;;655337;30;858;-85
2022/06/14 01:15:44;;;;;;;;;;;27.60;49.90;;;;;;652831;30;1383;-85
2022/06/14 01:16:05;;;;;;;;;;;27.60;50.10;;;;;;652985;30;822;-85
2022/06/14 01:16:26;;;;;;;;;;;27.60;49.70;;;;;;653103;30;1386;-84
2022/06/14 01:16:46;;;;;;;;;;;27.60;50.10;;;;;;655359;30;806;-84
2022/06/14 01:17:08;;;;;;;;;;;27.60;49.90;;;;;;655260;30;1321;-85
2022/06/14 01:17:30;;;;;;;;;;;27.60;49.60;;;;;;655380;30;1447;-85
2022/06/14 01:17:53;;;;;;;;;;;27.60;49.60;;;;;;652757;30;1313;-84
2022/06/14 01:18:14;;;;;;;;;;;27.60;49.60;;;;;;653713;30;853;-85
2022/06/14 01:18:36;;;;;;;;;;;27.60;49.70;;;;;;652870;30;1262;-84
2022/06/14 01:18:57;;;;;;;;;;;27.60;49.60;;;;;;652906;30;1896;-85
2022/06/14 01:19:19;;;;;;;;;;;27.50;49.60;;;;;;652776;30;1373;-85
2022/06/14 01:19:41;;;;;;;;;;;27.60;49.80;;;;;;653855;30;1443;-85
2022/06/14 01:20:01;;;;;;;;;;;27.50;49.80;;;;;;655065;30;1215;-85
2022/06/14 01:20:22;;;;;;;;;;;27.50;49.50;;;;;;652788;30;1272;-85
2022/06/14 01:20:43;;;;;;;;;;;27.60;49.50;;;;;;650711;30;1432;-85
2022/06/14 01:21:04;;;;;;;;;;;27.50;49.60;;;;;;650481;30;1438;-84
2022/06/14 01:21:25;;;;;;;;;;;27.60;49.60;;;;;;650601;30;869;-84
2022/06/14 01:21:51;;;;;;;;;;;27.20;49.40;;;;;;650750;30;1433;-84
2022/06/14 01:22:11;;;;;;;;;;;27.60;49.50;;;;;;656300;30;1335;-84
2022/06/14 01:22:32;;;;;;;;;;;27.60;49.40;;;;;;655403;30;1378;-84
2022/06/14 01:22:54;;;;;;;;;;;27.50;49.60;;;;;;653753;30;1179;-85
2022/06/14 01:23:16;;;;;;;;;;;27.60;49.60;;;;;;652837;30;1352;-84
2022/06/14 01:23:36;;;;;;;;;;;27.60;49.70;;;;;;650335;30;1566;-84
2022/06/14 01:23:57;;;;;;;;;;;27.60;49.60;;;;;;650121;30;831;-85
2022/06/14 01:24:19;;;;;;;;;;;27.60;49.60;;;;;;653249;30;1275;-85
2022/06/14 01:24:41;;;;;;;;;;;27.50;49.40;;;;;;658427;29;1274;-85
2022/06/14 01:25:02;;;;;;;;;;;27.50;49.60;;;;;;661189;29;853;-84
2022/06/14 01:25:24;;;;;;;;;;;27.50;49.60;;;;;;660944;29;810;-84
2022/06/14 01:25:47;;;;;;;;;;;27.50;49.60;;;;;;662775;29;1371;-85
2022/06/14 01:26:07;;;;;;;;;;;27.50;49.30;;;;;;662784;29;1343;-84
2022/06/14 01:26:29;;;;;;;;;;;27.50;49.60;;;;;;661851;29;1213;-84
2022/06/14 01:26:49;;;;;;;;;;;27.50;49.40;;;;;;660321;29;1519;-85
2022/06/14 01:27:12;;;;;;;;;;;27.50;49.50;;;;;;660661;29;1585;-84
2022/06/14 01:27:34;;;;;;;;;;;27.60;49.40;;;;;;660202;29;1329;-84
2022/06/14 01:27:54;;;;;;;;;;;27.50;49.30;;;;;;660512;30;797;-84
2022/06/14 01:28:17;;;;;;;;;;;27.50;49.30;;;;;;657835;30;1364;-84
2022/06/14 01:28:38;;;;;;;;;;;27.50;49.30;;;;;;657680;30;1474;-84
2022/06/14 01:29:01;;;;;;;;;;;27.50;49.30;;;;;;658243;30;917;-86
2022/06/14 01:29:23;;;;;;;;;;;27.50;49.40;;;;;;655371;30;1516;-85
2022/06/14 01:29:46;;;;;;;;;;;27.50;49.40;;;;;;655310;30;1346;-85
2022/06/14 01:30:07;;;;;;;;;;;27.50;49.50;;;;;;653110;30;1257;-84
2022/06/14 01:30:30;;;;;;;;;;;27.50;49.70;;;;;;654115;30;882;-85
2022/06/14 01:30:52;;;;;;;;;;;27.50;49.60;;;;;;656913;30;838;-85
2022/06/14 01:31:13;;;;;;;;;;;27.50;49.20;;;;;;656520;30;1394;-84
2022/06/14 01:31:34;;;;;;;;;;;27.50;49.30;;;;;;657774;30;1222;-85
2022/06/14 01:31:57;;;;;;;;;;;27.50;49.80;;;;;;658903;30;782;-85
2022/06/14 01:32:18;;;;;;;;;;;27.50;49.40;;;;;;657859;29;1346;-84
2022/06/14 01:32:42;;;;;;;;;;;27.50;49.50;;;;;;660204;29;1158;-85
2022/06/14 01:33:07;;;;;;;;;;;27.50;49.30;;;;;;659074;29;905;-85
2022/06/14 01:33:32;;;;;;;;;;;27.50;49.30;;;;;;660733;29;1336;-85
2022/06/14 01:33:56;;;;;;;;;;;27.50;49.20;;;;;;657827;30;1389;-85
2022/06/14 01:34:17;;;;;;;;;;;27.50;49.50;;;;;;659974;30;1237;-85
2022/06/14 01:34:39;;;;;;;;;;;27.50;49.10;;;;;;655564;30;1219;-84
2022/06/14 01:35:02;;;;;;;;;;;27.50;49.10;;;;;;655521;30;886;-85
2022/06/14 01:35:27;;;;;;;;;;;27.50;49.10;;;;;;656892;30;1742;-85
2022/06/14 01:35:49;;;;;;;;;;;27.50;49.20;;;;;;657833;30;830;-84
2022/06/14 01:36:13;;;;;;;;;;;27.50;49.30;;;;;;657758;30;1266;-85
2022/06/14 01:36:37;;;;;;;;;;;27.50;49.10;;;;;;659747;30;857;-85
2022/06/14 01:36:58;;;;;;;;;;;27.50;49.30;;;;;;660350;29;1116;-84
2022/06/14 01:37:20;;;;;;;;;;;27.50;49.80;;;;;;660325;29;1353;-85
2022/06/14 01:37:41;;;;;;;;;;;27.50;49.70;;;;;;662542;29;1375;-85
2022/06/14 01:38:04;;;;;;;;;;;27.50;50.10;;;;;;662944;29;797;-85
2022/06/14 01:38:25;;;;;;;;;;;27.50;49.50;;;;;;662958;29;904;-85
2022/06/14 01:38:46;;;;;;;;;;;27.50;49.20;;;;;;663682;29;958;-86
2022/06/14 01:39:09;;;;;;;;;;;27.50;49.10;;;;;;662652;29;1953;-85
2022/06/14 01:39:29;;;;;;;;;;;27.50;49.10;;;;;;661687;29;1378;-85
2022/06/14 01:39:50;;;;;;;;;;;27.50;49.70;;;;;;660223;29;1693;-85
2022/06/14 01:40:11;;;;;;;;;;;27.50;49.40;;;;;;660487;29;1365;-85
2022/06/14 01:40:53;;;;;;;;;;;27.50;49.50;;;;;;660314;29;1145;-85
2022/06/14 01:41:13;;;;;;;;;;;27.50;49.40;;;;;;660457;29;767;-85
2022/06/14 01:41:34;;;;;;;;;;;27.50;49.40;;;;;;657696;30;1443;-86
2022/06/14 01:42:13;;;;;;;;;;;27.50;49.40;;;;;;659947;29;1115;-86
2022/06/14 01:42:54;;;;;;;;;;;27.50;49.20;;;;;;660221;29;1378;-86
2022/06/14 01:43:17;;;;;;;;;;;27.50;49.20;;;;;;660300;30;891;-86
2022/06/14 01:43:46;;;;;;;;;;;27.50;49.20;;;;;;660542;29;850;-85
2022/06/14 01:44:20;;;;;;;;;;;27.60;49.30;;;;;;660230;29;1290;-84
2022/06/14 01:44:43;;;;;;;;;;;27.50;49.30;;;;;;660159;29;1150;-85
2022/06/14 01:45:16;;;;;;;;;;;27.50;49.30;;;;;;660235;29;1271;-85
2022/06/14 01:45:46;;;;;;;;;;;27.50;49.30;;;;;;660273;30;818;-85
2022/06/14 01:46:13;;;;;;;;;;;27.50;49.20;;;;;;660332;30;825;-85
2022/06/14 01:46:57;;;;;;;;;;;27.50;49.20;;;;;;660334;30;889;-85
2022/06/14 01:47:17;;;;;;;;;;;27.50;49.10;;;;;;660069;30;1181;-85
2022/06/14 01:47:38;;;;;;;;;;;27.50;49.10;;;;;;660193;30;853;-85
2022/06/14 01:48:10;;;;;;;;;;;27.50;49.10;;;;;;657777;30;1467;-86
2022/06/14 01:48:36;;;;;;;;;;;27.50;49.20;;;;;;655368;30;1395;-85
2022/06/14 01:51:52;;;;;;;;;;;27.50;49.50;;;;;;660359;30;690;-85
2022/06/14 01:52:33;;;;;;;;;;;27.50;50.00;;;;;;660193;30;868;-85
2022/06/14 01:52:58;;;;;;;;;;;27.50;50.10;;;;;;657163;30;1367;-85
2022/06/14 01:53:38;;;;;;;;;;;27.50;49.80;;;;;;657705;30;1381;-85
2022/06/14 01:54:01;;;;;;;;;;;27.50;49.70;;;;;;655200;30;1193;-85
2022/06/14 01:54:24;;;;;;;;;;;27.50;49.60;;;;;;655163;30;1313;-85
2022/06/14 01:54:50;;;;;;;;;;;27.50;49.70;;;;;;655305;30;873;-85
2022/06/14 01:55:20;;;;;;;;;;;27.50;49.60;;;;;;653897;30;1498;-85
2022/06/14 01:55:59;;;;;;;;;;;27.50;49.70;;;;;;655245;30;1252;-86
2022/06/14 01:56:37;;;;;;;;;;;27.50;49.60;;;;;;655148;30;1463;-85
2022/06/14 01:57:09;;;;;;;;;;;27.50;49.60;;;;;;655360;30;802;-85
2022/06/14 01:57:55;;;;;;;;;;;27.50;49.70;;;;;;655190;30;1559;-86
2022/06/14 01:58:23;;;;;;;;;;;27.50;49.80;;;;;;649670;30;1236;-85
2022/06/14 01:58:49;;;;;;;;;;;27.50;49.40;;;;;;650389;30;1354;-85
2022/06/14 01:59:20;;;;;;;;;;;27.50;49.30;;;;;;650251;30;1965;-85
2022/06/14 01:59:56;;;;;;;;;;;27.50;49.20;;;;;;652687;30;1205;-84
2022/06/14 02:00:23;;;;;;;;;;;27.50;49.40;;;;;;652860;30;878;-85
2022/06/14 02:00:50;;;;;;;;;;;27.50;49.40;;;;;;652722;30;1382;-85
2022/06/14 02:01:13;;;;;;;;;;;27.50;49.30;;;;;;652647;30;1362;-84
2022/06/14 02:01:42;;;;;;;;;;;27.50;49.50;;;;;;650429;30;1272;-85
2022/06/14 02:02:11;;;;;;;;;;;27.50;49.50;;;;;;650417;30;1054;-85
2022/06/14 02:02:35;;;;;;;;;;;27.50;49.30;;;;;;650424;30;1343;-85
2022/06/14 02:04:38;;;;;;;;;;;27.50;49.10;;;;;;652213;30;621;-85
2022/06/14 02:05:06;;;;;;;;;;;27.50;49.10;;;;;;652818;30;1265;-86
2022/06/14 02:05:31;;;;;;;;;;;27.50;49.00;;;;;;652884;30;1526;-85
2022/06/14 02:05:57;;;;;;;;;;;27.50;49.10;;;;;;652721;30;1516;-86
2022/06/14 02:06:21;;;;;;;;;;;27.50;49.10;;;;;;650230;30;1239;-85
2022/06/14 02:06:50;;;;;;;;;;;27.50;49.00;;;;;;650327;30;1236;-85
2022/06/14 02:07:13;;;;;;;;;;;27.50;48.70;;;;;;650364;30;902;-85
2022/06/14 02:07:38;;;;;;;;;;;27.50;49.00;;;;;;650286;30;1687;-85
2022/06/14 02:08:19;;;;;;;;;;;27.50;48.80;;;;;;650441;30;1366;-85
2022/06/14 02:08:45;;;;;;;;;;;27.50;48.70;;;;;;652018;30;1207;-85
2022/06/14 02:09:11;;;;;;;;;;;27.50;49.30;;;;;;650393;30;1160;-85
2022/06/14 02:09:35;;;;;;;;;;;27.50;49.00;;;;;;650533;30;831;-85
2022/06/14 02:10:04;;;;;;;;;;;27.50;48.80;;;;;;650566;30;799;-85
2022/06/14 02:10:40;;;;;;;;;;;27.50;49.00;;;;;;650319;30;1172;-85
2022/06/14 02:11:03;;;;;;;;;;;27.50;49.00;;;;;;652012;30;894;-86
2022/06/14 02:11:28;;;;;;;;;;;27.50;48.60;;;;;;652476;30;959;-85
2022/06/14 02:11:49;;;;;;;;;;;27.50;48.60;;;;;;652868;30;822;-85
2022/06/14 02:12:13;;;;;;;;;;;27.50;48.80;;;;;;650229;30;1270;-86
2022/06/14 02:12:45;;;;;;;;;;;27.50;48.70;;;;;;650319;30;986;-86
2022/06/14 02:13:05;;;;;;;;;;;27.50;49.00;;;;;;650325;30;1248;-85
2022/06/14 02:13:29;;;;;;;;;;;27.50;48.90;;;;;;650462;30;1106;-85
2022/06/14 02:13:55;;;;;;;;;;;27.50;48.60;;;;;;650338;30;1093;-86
2022/06/14 02:14:21;;;;;;;;;;;27.50;48.50;;;;;;650276;30;1265;-85
2022/06/14 02:14:54;;;;;;;;;;;27.50;48.50;;;;;;650295;30;1378;-85
2022/06/14 02:15:18;;;;;;;;;;;27.50;48.60;;;;;;650311;30;1342;-86
2022/06/14 02:15:50;;;;;;;;;;;27.50;48.60;;;;;;650384;30;890;-86
2022/06/14 02:16:24;;;;;;;;;;;27.50;48.40;;;;;;650281;30;1359;-85
2022/06/14 02:17:14;;;;;;;;;;;27.60;48.70;;;;;;650278;30;912;-85
2022/06/14 02:17:36;;;;;;;;;;;27.50;48.50;;;;;;647898;30;1292;-85
2022/06/14 02:18:00;;;;;;;;;;;27.50;48.40;;;;;;647984;30;1305;-85
2022/06/14 02:18:30;;;;;;;;;;;27.50;48.30;;;;;;647868;30;1181;-85
2022/06/14 02:18:58;;;;;;;;;;;27.50;48.20;;;;;;647795;30;1105;-85
2022/06/14 02:19:39;;;;;;;;;;;27.50;48.40;;;;;;647967;30;1336;-85
2022/06/14 02:20:01;;;;;;;;;;;27.50;48.20;;;;;;645791;30;993;-85
2022/06/14 02:20:24;;;;;;;;;;;27.50;48.10;;;;;;645620;30;878;-85
2022/06/14 02:20:52;;;;;;;;;;;27.50;48.40;;;;;;645514;30;1295;-85
2022/06/14 02:21:17;;;;;;;;;;;27.50;48.20;;;;;;647984;30;1250;-86
2022/06/14 02:21:41;;;;;;;;;;;27.50;48.00;;;;;;647902;30;1283;-86
2022/06/14 02:22:06;;;;;;;;;;;27.50;48.00;;;;;;648230;30;839;-86
2022/06/14 02:22:32;;;;;;;;;;;27.50;48.50;;;;;;647856;30;960;-85
2022/06/14 02:23:00;;;;;;;;;;;27.50;48.30;;;;;;645644;30;1001;-85
2022/06/14 02:23:23;;;;;;;;;;;27.50;48.00;;;;;;645673;30;1424;-86
2022/06/14 02:23:46;;;;;;;;;;;27.50;48.00;;;;;;647954;30;891;-87
2022/06/14 02:24:10;;;;;;;;;;;27.50;47.80;;;;;;648005;30;1161;-86
2022/06/14 02:24:34;;;;;;;;;;;27.50;49.00;;;;;;647952;30;1141;-85
2022/06/14 02:24:59;;;;;;;;;;;27.50;48.50;;;;;;648110;30;799;-86
2022/06/14 02:25:26;;;;;;;;;;;27.50;48.20;;;;;;647273;30;1218;-86
2022/06/14 02:25:50;;;;;;;;;;;27.50;47.90;;;;;;645645;30;819;-86
2022/06/14 02:26:17;;;;;;;;;;;27.50;48.10;;;;;;645549;30;1262;-86
2022/06/14 02:26:39;;;;;;;;;;;27.50;49.00;;;;;;647931;30;1188;-86
2022/06/14 02:27:07;;;;;;;;;;;27.50;47.80;;;;;;648137;30;953;-86
2022/06/14 02:27:33;;;;;;;;;;;27.50;47.80;;;;;;647930;30;1328;-86
2022/06/14 02:28:04;;;;;;;;;;;27.50;47.70;;;;;;648052;30;1514;-85
2022/06/14 02:28:27;;;;;;;;;;;27.50;47.60;;;;;;647286;30;1232;-86
2022/06/14 02:28:51;;;;;;;;;;;27.50;48.00;;;;;;645551;30;1602;-86
2022/06/14 02:29:24;;;;;;;;;;;27.50;47.70;;;;;;642885;30;1098;-86
2022/06/14 02:29:47;;;;;;;;;;;27.50;47.60;;;;;;641863;30;991;-86
2022/06/14 02:30:11;;;;;;;;;;;27.50;48.00;;;;;;640811;30;1390;-85
2022/06/14 02:30:35;;;;;;;;;;;27.50;48.00;;;;;;643486;30;1425;-86
2022/06/14 02:31:05;;;;;;;;;;;27.50;47.80;;;;;;645970;30;1325;-86
2022/06/14 02:31:31;;;;;;;;;;;27.50;47.90;;;;;;647989;30;1063;-86
2022/06/14 02:32:03;;;;;;;;;;;25.60;46.40;;;;;;647892;30;1111;-86
2022/06/14 02:32:37;;;;;;;;;;;27.50;47.60;;;;;;646627;30;1268;-85